Adams Center, New York
Current Conditions -  °F | °C
As of 3:56 AM on Sunday 21 Dec 2014 (Local Time) from KART Reporting Station
Overcast Overcast  
Wind Chill: 25°   Ceiling: 2100
Heat Index: 25°   Visibility: 9mi
Dew Point: 19°   Wind: 0mph
Humidity: 78%   Direction: NA
Pressure: 30.3"   Gusts: NA
Location:  43.86°N, 76°W
Report Text: KART 210856Z AUTO 00000KT 9SM OVC021 M04/M07 A3030 RMK AO2 SLP266 T10391072 50002
Loading
Personal Weather Stations






























Interactive Weather Map New forecast layout! Learn more

10-Day Weather Forecast

Advertisements
Track Severe Weather on mobile